createdAt,value
2019-02-11T00:00:47.013Z,976.3
2019-02-11T00:01:47.684Z,976.4
2019-02-11T00:02:48.356Z,976.4
2019-02-11T00:03:49.027Z,976.5
2019-02-11T00:04:49.699Z,976.5
2019-02-11T00:05:50.366Z,976.6
2019-02-11T00:06:51.047Z,976.6
2019-02-11T00:07:51.756Z,976.6
2019-02-11T00:08:52.427Z,976.7
2019-02-11T00:09:53.096Z,976.7
2019-02-11T00:10:53.765Z,976.7
2019-02-11T00:11:54.439Z,976.7
2019-02-11T00:12:55.108Z,976.8
2019-02-11T00:13:55.777Z,976.8
2019-02-11T00:14:56.443Z,976.8
2019-02-11T00:15:57.121Z,976.9
2019-02-11T00:16:57.785Z,977.0
2019-02-11T00:17:58.454Z,977.0
2019-02-11T00:18:59.126Z,977.0
2019-02-11T00:19:59.801Z,977.0
2019-02-11T00:21:00.467Z,977.0
2019-02-11T00:22:01.138Z,977.0
2019-02-11T00:23:01.808Z,977.1
2019-02-11T00:24:02.477Z,977.0
2019-02-11T00:25:03.147Z,977.1
2019-02-11T00:26:03.818Z,977.2
2019-02-11T00:27:04.489Z,977.3
2019-02-11T00:28:05.212Z,977.3
2019-02-11T00:29:05.836Z,977.4
2019-02-11T00:30:06.506Z,977.4
2019-02-11T00:31:07.227Z,977.5
2019-02-11T00:32:07.898Z,977.7
2019-02-11T00:33:08.574Z,977.5
2019-02-11T00:34:09.239Z,977.6
2019-02-11T00:35:09.912Z,977.6
2019-02-11T00:36:10.581Z,977.7
2019-02-11T00:37:11.250Z,977.7
2019-02-11T00:38:11.920Z,977.7
2019-02-11T00:39:12.589Z,977.8
2019-02-11T00:40:13.261Z,977.8
2019-02-11T00:41:13.931Z,977.9
2019-02-11T00:42:14.600Z,977.8
2019-02-11T00:43:19.246Z,977.9
2019-02-11T00:44:16.935Z,978.0
2019-02-11T00:45:17.602Z,977.9
2019-02-11T00:46:18.273Z,978.0
2019-02-11T00:47:18.942Z,978.0
2019-02-11T00:48:19.610Z,978.2
2019-02-11T00:49:20.279Z,978.2
2019-02-11T00:50:20.951Z,978.2
2019-02-11T00:51:21.624Z,978.4
2019-02-11T00:52:22.339Z,978.3
2019-02-11T00:53:23.014Z,978.3
2019-02-11T00:54:23.728Z,978.3
2019-02-11T00:55:24.400Z,978.3
2019-02-11T00:56:25.070Z,978.3
2019-02-11T00:57:25.739Z,978.4
2019-02-11T00:58:26.408Z,978.4
2019-02-11T00:59:27.079Z,978.5
2019-02-11T01:00:27.748Z,978.5
2019-02-11T01:01:28.418Z,978.5
2019-02-11T01:02:29.089Z,978.5
2019-02-11T01:03:29.760Z,978.6
2019-02-11T01:04:30.476Z,978.6
2019-02-11T01:05:31.145Z,978.6
2019-02-11T01:06:31.816Z,978.6
2019-02-11T01:07:32.487Z,978.7
2019-02-11T01:08:33.155Z,978.7
2019-02-11T01:09:33.824Z,978.8
2019-02-11T01:10:34.494Z,978.7
2019-02-11T01:11:35.168Z,978.7
2019-02-11T01:12:35.834Z,978.8
2019-02-11T01:13:36.504Z,978.8
2019-02-11T01:14:37.174Z,978.8
2019-02-11T01:15:37.844Z,978.8
2019-02-11T01:16:38.512Z,978.8
2019-02-11T01:17:39.182Z,978.9
2019-02-11T01:18:39.852Z,978.9
2019-02-11T01:19:40.522Z,978.9
2019-02-11T01:20:41.239Z,979.1
2019-02-11T01:21:41.911Z,979.0
2019-02-11T01:22:42.577Z,979.0
2019-02-11T01:23:43.246Z,979.0
2019-02-11T01:24:43.916Z,979.1
2019-02-11T01:25:44.586Z,979.1
2019-02-11T01:26:45.257Z,979.2
2019-02-11T01:27:45.926Z,979.1
2019-02-11T01:28:46.594Z,979.1
2019-02-11T01:29:47.264Z,979.2
2019-02-11T01:30:47.936Z,979.2
2019-02-11T01:31:48.651Z,979.2
2019-02-11T01:32:49.320Z,979.3
2019-02-11T01:33:50.006Z,979.2
2019-02-11T01:34:50.663Z,979.2
2019-02-11T01:35:51.329Z,979.2
2019-02-11T01:36:51.996Z,979.2
2019-02-11T01:37:52.664Z,979.4
2019-02-11T01:38:53.335Z,979.3
2019-02-11T01:39:54.005Z,979.3
2019-02-11T01:40:54.673Z,979.4
2019-02-11T01:41:55.354Z,979.3
2019-02-11T01:42:56.014Z,979.3
2019-02-11T01:43:56.734Z,979.4
2019-02-11T01:44:57.403Z,979.3
2019-02-11T01:45:58.072Z,979.3
2019-02-11T01:46:58.742Z,979.3
2019-02-11T01:47:59.418Z,979.4
2019-02-11T01:49:00.129Z,979.4
2019-02-11T01:50:00.799Z,979.4
2019-02-11T01:51:01.468Z,979.4
2019-02-11T01:52:02.139Z,979.4
2019-02-11T01:53:02.807Z,979.4
2019-02-11T01:54:03.475Z,979.5
2019-02-11T01:55:04.195Z,979.5
2019-02-11T01:56:04.863Z,979.5
2019-02-11T01:57:05.534Z,979.4
2019-02-11T01:58:06.202Z,979.5
2019-02-11T01:59:06.872Z,979.5
2019-02-11T02:00:07.542Z,979.5
2019-02-11T02:01:08.209Z,979.6
2019-02-11T02:02:08.878Z,979.6
2019-02-11T02:03:09.549Z,979.6
2019-02-11T02:04:10.218Z,979.6
2019-02-11T02:05:10.886Z,979.6
2019-02-11T02:06:11.558Z,979.7
2019-02-11T02:07:12.226Z,979.7
2019-02-11T02:08:12.896Z,979.8
2019-02-11T02:09:13.565Z,979.7
2019-02-11T02:10:14.237Z,979.8
2019-02-11T02:11:14.954Z,979.8
2019-02-11T02:12:15.623Z,979.8
2019-02-11T02:13:16.295Z,979.9
2019-02-11T02:14:16.964Z,979.9
2019-02-11T02:15:17.634Z,980.0
2019-02-11T02:16:18.352Z,979.9
2019-02-11T02:17:19.022Z,980.0
2019-02-11T02:18:19.692Z,980.0
2019-02-11T02:19:20.362Z,980.1
2019-02-11T02:20:21.030Z,980.1
2019-02-11T02:21:21.698Z,980.1
2019-02-11T02:22:22.366Z,980.1
2019-02-11T02:23:23.037Z,980.2
2019-02-11T02:24:23.707Z,980.1
2019-02-11T02:25:24.377Z,980.3
2019-02-11T02:26:25.048Z,980.3
2019-02-11T02:27:25.719Z,980.3
2019-02-11T02:28:26.435Z,980.3
2019-02-11T02:29:27.105Z,980.4
2019-02-11T02:30:27.774Z,980.4
2019-02-11T02:31:28.508Z,980.4
2019-02-11T02:32:29.175Z,980.5
2019-02-11T02:33:29.846Z,980.5
2019-02-11T02:34:30.513Z,980.5
2019-02-11T02:35:31.185Z,980.5
2019-02-11T02:36:31.853Z,980.5
2019-02-11T02:37:32.655Z,980.6
2019-02-11T02:38:33.280Z,980.8
2019-02-11T02:39:33.951Z,980.6
2019-02-11T02:40:34.620Z,980.6
2019-02-11T02:41:35.291Z,980.7
2019-02-11T02:42:35.958Z,980.7
2019-02-11T02:43:36.627Z,980.7
2019-02-11T02:44:37.296Z,980.7
2019-02-11T02:45:37.965Z,980.8
2019-02-11T02:46:38.635Z,980.9
2019-02-11T02:47:39.307Z,980.9
2019-02-11T02:48:39.973Z,980.9
2019-02-11T02:49:40.644Z,980.9
2019-02-11T02:50:41.364Z,981.0
2019-02-11T02:51:42.031Z,981.1
2019-02-11T02:52:42.698Z,981.1
2019-02-11T02:53:43.424Z,981.1
2019-02-11T02:54:44.086Z,981.1
2019-02-11T02:55:44.755Z,981.2
2019-02-11T02:56:45.473Z,981.2
2019-02-11T02:57:46.147Z,981.3
2019-02-11T02:58:46.812Z,981.3
2019-02-11T02:59:47.483Z,981.4
2019-02-11T03:00:48.152Z,981.4
2019-02-11T03:01:48.820Z,981.3
2019-02-11T03:02:49.489Z,981.4
2019-02-11T03:03:50.171Z,981.4
2019-02-11T03:04:50.829Z,981.5
2019-02-11T03:05:53.000Z,981.5
2019-02-11T03:06:53.159Z,981.5
2019-02-11T03:07:53.828Z,981.6
2019-02-11T03:08:54.497Z,981.5
2019-02-11T03:09:55.168Z,981.6
2019-02-11T03:10:55.845Z,981.5
2019-02-11T03:11:56.559Z,981.6
2019-02-11T03:12:57.225Z,981.6
2019-02-11T03:14:05.389Z,981.6
2019-02-11T03:14:59.557Z,981.7
2019-02-11T03:16:00.223Z,981.7
2019-02-11T03:17:00.893Z,981.6
2019-02-11T03:18:01.566Z,981.7
2019-02-11T03:19:02.231Z,981.8
2019-02-11T03:20:02.900Z,981.8
2019-02-11T03:21:03.569Z,981.8
2019-02-11T03:22:04.237Z,981.8
2019-02-11T03:23:04.908Z,981.8
2019-02-11T03:24:05.577Z,981.8
2019-02-11T03:25:06.246Z,981.9
2019-02-11T03:26:06.915Z,981.9
2019-02-11T03:27:07.585Z,981.9
2019-02-11T03:28:08.256Z,982.0
2019-02-11T03:29:08.924Z,982.0
2019-02-11T03:30:09.596Z,982.0
2019-02-11T03:31:10.264Z,982.1
2019-02-11T03:32:10.941Z,982.0
2019-02-11T03:33:11.605Z,982.1
2019-02-11T03:34:12.319Z,982.0
2019-02-11T03:35:12.990Z,982.0
2019-02-11T03:36:13.659Z,982.1
2019-02-11T03:37:14.331Z,982.1
2019-02-11T03:38:15.000Z,982.2
2019-02-11T03:39:15.672Z,982.2
2019-02-11T03:40:16.339Z,982.2
2019-02-11T03:41:17.008Z,982.2
2019-02-11T03:42:17.678Z,982.2
2019-02-11T03:43:18.347Z,982.2
2019-02-11T03:44:19.024Z,982.2
2019-02-11T03:45:19.688Z,982.3
2019-02-11T03:46:20.357Z,982.2
2019-02-11T03:47:21.028Z,982.3
2019-02-11T03:48:21.696Z,982.3
2019-02-11T03:49:22.365Z,982.4
2019-02-11T03:50:23.034Z,982.4
2019-02-11T03:51:23.704Z,982.4
2019-02-11T03:52:24.373Z,982.5
2019-02-11T03:53:25.042Z,982.5
2019-02-11T03:54:25.711Z,982.5
2019-02-11T03:55:26.382Z,982.5
2019-02-11T03:56:27.051Z,982.5
2019-02-11T03:57:27.719Z,982.5
2019-02-11T03:58:28.391Z,982.6
2019-02-11T03:59:29.060Z,982.6
2019-02-11T04:00:29.729Z,982.6
2019-02-11T04:01:30.399Z,982.6
2019-02-11T04:02:31.069Z,982.6
2019-02-11T04:03:31.738Z,982.7
2019-02-11T04:04:32.407Z,982.7
2019-02-11T04:05:33.078Z,982.7
2019-02-11T04:06:33.747Z,982.7
2019-02-11T04:07:34.422Z,982.7
2019-02-11T04:08:35.132Z,982.8
2019-02-11T04:09:35.803Z,982.9
2019-02-11T04:10:36.474Z,982.9
2019-02-11T04:11:37.142Z,982.9
2019-02-11T04:12:37.811Z,983.0
2019-02-11T04:13:38.480Z,983.0
2019-02-11T04:14:39.153Z,983.0
2019-02-11T04:15:39.819Z,983.1
2019-02-11T04:16:40.492Z,983.0
2019-02-11T04:17:41.179Z,983.1
2019-02-11T04:18:41.830Z,983.0
2019-02-11T04:19:42.498Z,983.1
2019-02-11T04:20:43.167Z,983.1
2019-02-11T04:21:43.836Z,983.1
2019-02-11T04:22:44.505Z,983.1
2019-02-11T04:23:45.177Z,983.1
2019-02-11T04:24:45.844Z,983.1
2019-02-11T04:25:46.517Z,983.1
2019-02-11T04:26:47.182Z,983.2
2019-02-11T04:27:47.854Z,983.2
2019-02-11T04:28:48.525Z,983.2
2019-02-11T04:29:49.194Z,983.3
2019-02-11T04:30:49.865Z,983.3
2019-02-11T04:31:50.535Z,983.2
2019-02-11T04:32:51.252Z,983.2
2019-02-11T04:33:51.923Z,983.3
2019-02-11T04:34:52.591Z,983.3
2019-02-11T04:35:53.261Z,983.3
2019-02-11T04:36:53.930Z,983.3
2019-02-11T04:37:54.601Z,983.3
2019-02-11T04:38:55.271Z,983.3
2019-02-11T04:39:55.938Z,983.4
2019-02-11T04:40:56.609Z,983.3
2019-02-11T04:41:57.280Z,983.4
2019-02-11T04:42:57.955Z,983.4
2019-02-11T04:43:58.617Z,983.4
2019-02-11T04:44:59.288Z,983.4
2019-02-11T04:45:59.958Z,983.4
2019-02-11T04:47:00.626Z,983.4
2019-02-11T04:48:01.296Z,983.5
2019-02-11T04:49:01.966Z,983.5
2019-02-11T04:50:02.637Z,983.5
2019-02-11T04:51:03.306Z,983.6
2019-02-11T04:52:03.977Z,983.6
2019-02-11T04:53:04.696Z,983.6
2019-02-11T04:54:05.366Z,983.6
2019-02-11T04:55:06.038Z,983.6
2019-02-11T04:56:06.707Z,983.6
2019-02-11T04:57:07.374Z,983.7
2019-02-11T04:58:08.043Z,983.7
2019-02-11T04:59:08.716Z,983.7
2019-02-11T05:00:09.385Z,983.7
2019-02-11T05:01:10.054Z,983.7
2019-02-11T05:02:10.728Z,983.7
2019-02-11T05:03:11.444Z,983.7
2019-02-11T05:04:12.161Z,983.7
2019-02-11T05:05:12.830Z,983.8
2019-02-11T05:06:13.498Z,983.8
2019-02-11T05:07:14.168Z,983.7
2019-02-11T05:08:14.835Z,983.8
2019-02-11T05:09:15.506Z,983.8
2019-02-11T05:10:16.177Z,983.8
2019-02-11T05:11:16.844Z,983.8
2019-02-11T05:12:17.515Z,983.9
2019-02-11T05:13:18.183Z,983.9
2019-02-11T05:14:18.854Z,983.8
2019-02-11T05:15:19.525Z,984.0
2019-02-11T05:16:20.194Z,983.9
2019-02-11T05:17:20.863Z,983.9
2019-02-11T05:18:21.533Z,984.0
2019-02-11T05:19:22.203Z,984.0
2019-02-11T05:20:22.874Z,984.1
2019-02-11T05:21:23.543Z,984.1
2019-02-11T05:22:24.212Z,984.0
2019-02-11T05:23:24.884Z,984.1
2019-02-11T05:24:25.556Z,984.1
2019-02-11T05:25:26.222Z,984.1
2019-02-11T05:26:26.895Z,984.2
2019-02-11T05:27:27.559Z,984.1
2019-02-11T05:28:28.230Z,984.1
2019-02-11T05:29:28.897Z,984.2
2019-02-11T05:30:29.567Z,984.2
2019-02-11T05:31:32.552Z,984.2
2019-02-11T05:32:31.000Z,984.3
2019-02-11T05:33:31.664Z,984.3
2019-02-11T05:34:32.339Z,984.2
2019-02-11T05:35:33.005Z,984.3
2019-02-11T05:36:33.674Z,984.3
2019-02-11T05:37:34.344Z,984.3
2019-02-11T05:38:35.015Z,984.4
2019-02-11T05:39:35.684Z,984.4
2019-02-11T05:40:36.354Z,984.4
2019-02-11T05:41:37.024Z,984.4
2019-02-11T05:42:37.695Z,984.5
2019-02-11T05:43:38.411Z,984.5
2019-02-11T05:44:39.083Z,984.5
2019-02-11T05:45:39.753Z,984.5
2019-02-11T05:46:40.419Z,984.5
2019-02-11T05:47:41.091Z,984.5
2019-02-11T05:48:41.800Z,984.5
2019-02-11T05:49:42.477Z,984.6
2019-02-11T05:50:43.147Z,984.5
2019-02-11T05:51:43.823Z,984.6
2019-02-11T05:52:44.487Z,984.6
2019-02-11T05:53:45.153Z,984.7
2019-02-11T05:54:45.821Z,984.7
2019-02-11T05:55:46.492Z,984.7
2019-02-11T05:56:47.163Z,984.8
2019-02-11T05:57:47.831Z,984.8
2019-02-11T05:58:48.503Z,984.7
2019-02-11T05:59:49.212Z,984.7
2019-02-11T06:00:49.883Z,984.8
2019-02-11T06:01:50.555Z,984.8
2019-02-11T06:02:51.222Z,984.8
2019-02-11T06:03:51.894Z,984.9
2019-02-11T06:04:52.608Z,984.9
2019-02-11T06:05:53.279Z,984.9
2019-02-11T06:06:53.949Z,984.9
2019-02-11T06:07:54.619Z,984.9
2019-02-11T06:08:55.288Z,985.0
2019-02-11T06:09:55.962Z,985.0
2019-02-11T06:10:56.628Z,985.0
2019-02-11T06:11:57.299Z,985.1
2019-02-11T06:12:57.970Z,985.1
2019-02-11T06:13:58.689Z,985.1
2019-02-11T06:15:04.341Z,985.2
2019-02-11T06:16:00.072Z,985.2
2019-02-11T06:17:00.740Z,985.2
2019-02-11T06:18:01.414Z,985.3
2019-02-11T06:19:02.130Z,985.3
2019-02-11T06:20:02.799Z,985.3
2019-02-11T06:21:03.470Z,985.4
2019-02-11T06:22:04.138Z,985.4
2019-02-11T06:23:04.808Z,985.4
2019-02-11T06:24:05.529Z,985.5
2019-02-11T06:25:06.199Z,985.5
2019-02-11T06:26:06.877Z,985.5
2019-02-11T06:27:07.589Z,985.5
2019-02-11T06:28:08.260Z,985.5
2019-02-11T06:29:08.931Z,985.5
2019-02-11T06:30:09.603Z,985.5
2019-02-11T06:31:10.273Z,985.6
2019-02-11T06:32:10.946Z,985.6
2019-02-11T06:33:11.616Z,985.6
2019-02-11T06:34:12.287Z,985.6
2019-02-11T06:35:12.960Z,985.6
2019-02-11T06:36:13.636Z,985.7
2019-02-11T06:37:14.350Z,985.7
2019-02-11T06:38:15.028Z,985.7
2019-02-11T06:39:15.694Z,985.8
2019-02-11T06:40:16.362Z,985.8
2019-02-11T06:41:17.034Z,985.8
2019-02-11T06:42:17.707Z,985.8
2019-02-11T06:43:18.376Z,985.8
2019-02-11T06:44:19.049Z,985.9
2019-02-11T06:45:19.720Z,985.9
2019-02-11T06:46:20.393Z,986.0
2019-02-11T06:47:21.065Z,985.9
2019-02-11T06:48:21.736Z,986.0
2019-02-11T06:49:22.458Z,986.0
2019-02-11T06:50:23.130Z,986.0
2019-02-11T06:51:23.802Z,986.1
2019-02-11T06:52:24.474Z,986.2
2019-02-11T06:53:25.147Z,986.2
2019-02-11T06:54:25.819Z,986.2
2019-02-11T06:55:26.491Z,986.3
2019-02-11T06:56:27.170Z,986.3
2019-02-11T06:57:27.888Z,986.3
2019-02-11T06:58:28.562Z,986.3
2019-02-11T06:59:29.236Z,986.3
2019-02-11T07:00:29.909Z,986.4
2019-02-11T07:01:30.583Z,986.4
2019-02-11T07:02:31.257Z,986.4
2019-02-11T07:03:31.928Z,986.5
2019-02-11T07:04:32.602Z,986.4
2019-02-11T07:05:33.287Z,986.4
2019-02-11T07:06:34.005Z,986.5
2019-02-11T07:07:34.672Z,986.5
2019-02-11T07:08:35.343Z,986.5
2019-02-11T07:09:36.017Z,986.6
2019-02-11T07:10:36.690Z,986.6
2019-02-11T07:11:37.363Z,986.6
2019-02-11T07:12:38.036Z,986.6
2019-02-11T07:13:38.710Z,986.5
2019-02-11T07:14:39.415Z,986.6
2019-02-11T07:15:40.105Z,986.6
2019-02-11T07:16:40.778Z,986.6
2019-02-11T07:17:41.457Z,986.7
2019-02-11T07:18:42.174Z,986.6
2019-02-11T07:19:42.845Z,986.6
2019-02-11T07:20:43.556Z,986.7
2019-02-11T07:21:44.242Z,986.7
2019-02-11T07:22:44.960Z,986.7
2019-02-11T07:23:45.634Z,986.8
2019-02-11T07:24:46.309Z,986.8
2019-02-11T07:25:46.980Z,986.8
2019-02-11T07:26:47.652Z,986.8
2019-02-11T07:27:48.326Z,986.9
2019-02-11T07:28:49.000Z,986.9
2019-02-11T07:29:49.672Z,986.9
2019-02-11T07:30:50.349Z,987.0
2019-02-11T07:31:51.023Z,987.0
2019-02-11T07:32:51.692Z,987.0
2019-02-11T07:33:52.366Z,987.0
2019-02-11T07:34:53.040Z,987.0
2019-02-11T07:35:53.716Z,987.0
2019-02-11T07:36:54.413Z,987.1
2019-02-11T07:37:55.086Z,987.2
2019-02-11T07:38:55.760Z,987.3
2019-02-11T07:39:56.433Z,987.2
2019-02-11T07:40:57.108Z,987.3
2019-02-11T07:41:57.779Z,987.2
2019-02-11T07:42:58.498Z,987.2
2019-02-11T07:43:59.179Z,987.3
2019-02-11T07:44:59.850Z,987.4
2019-02-11T07:46:00.525Z,987.4
2019-02-11T07:47:01.199Z,987.3
2019-02-11T07:48:01.876Z,987.4
2019-02-11T07:49:02.546Z,987.4
2019-02-11T07:50:03.219Z,987.4
2019-02-11T07:51:03.895Z,987.4
2019-02-11T07:52:04.570Z,987.4
2019-02-11T07:53:05.292Z,987.5
2019-02-11T07:54:05.966Z,987.5
2019-02-11T07:55:06.638Z,987.6
2019-02-11T07:56:07.313Z,987.5
2019-02-11T07:57:07.989Z,987.6
2019-02-11T07:58:08.664Z,987.6
2019-02-11T07:59:09.367Z,987.6
2019-02-11T08:00:10.070Z,987.7
2019-02-11T08:01:10.735Z,987.6
2019-02-11T08:02:11.411Z,987.7
2019-02-11T08:03:12.132Z,987.7
2019-02-11T08:04:12.843Z,987.8
2019-02-11T08:05:13.531Z,987.7
2019-02-11T08:06:14.207Z,987.7
2019-02-11T08:07:14.879Z,987.8
2019-02-11T08:08:15.553Z,987.8
2019-02-11T08:09:16.226Z,987.9
2019-02-11T08:10:16.904Z,987.8
2019-02-11T08:11:17.573Z,987.8
2019-02-11T08:12:18.249Z,987.9
2019-02-11T08:13:18.922Z,987.9
2019-02-11T08:14:19.598Z,987.9
2019-02-11T08:15:20.271Z,988.0
2019-02-11T08:16:20.943Z,988.0
2019-02-11T08:17:21.619Z,988.0
2019-02-11T08:18:22.293Z,988.1
2019-02-11T08:19:22.968Z,988.1
2019-02-11T08:20:23.640Z,988.1
2019-02-11T08:21:24.318Z,988.2
2019-02-11T08:22:24.990Z,988.3
2019-02-11T08:23:25.714Z,988.3
2019-02-11T08:24:26.340Z,988.2
2019-02-11T08:25:27.013Z,988.3
2019-02-11T08:26:27.687Z,988.3
2019-02-11T08:27:28.361Z,988.3
2019-02-11T08:28:29.085Z,988.3
2019-02-11T08:29:29.760Z,988.3
2019-02-11T08:30:30.439Z,988.3
2019-02-11T08:31:31.162Z,988.4
2019-02-11T08:32:31.884Z,988.3
2019-02-11T08:33:32.557Z,988.4
2019-02-11T08:34:33.230Z,988.4
2019-02-11T08:35:33.905Z,988.4
2019-02-11T08:36:34.616Z,988.5
2019-02-11T08:37:35.302Z,988.5
2019-02-11T08:38:35.976Z,988.5
2019-02-11T08:39:36.650Z,988.5
2019-02-11T08:40:37.326Z,988.5
2019-02-11T08:41:37.998Z,988.5
2019-02-11T08:42:38.673Z,988.6
2019-02-11T08:43:39.395Z,988.6
2019-02-11T08:44:40.070Z,988.7
2019-02-11T08:45:46.802Z,988.7
2019-02-11T08:46:41.461Z,988.7
2019-02-11T08:47:42.137Z,988.6
2019-02-11T08:48:42.809Z,988.6
2019-02-11T08:49:43.505Z,988.7
2019-02-11T08:50:44.180Z,988.7
2019-02-11T08:51:44.887Z,988.6
2019-02-11T08:52:45.579Z,988.7
2019-02-11T08:53:46.254Z,988.7
2019-02-11T08:54:46.928Z,988.7
2019-02-11T08:55:47.606Z,988.8
2019-02-11T08:56:48.329Z,988.8
2019-02-11T08:57:48.961Z,988.8
2019-02-11T08:58:49.683Z,988.8
2019-02-11T08:59:50.359Z,988.8
2019-02-11T09:00:51.034Z,988.8
2019-02-11T09:01:51.709Z,988.8
2019-02-11T09:02:52.384Z,988.8
2019-02-11T09:03:53.063Z,988.9
2019-02-11T09:04:53.734Z,988.8
2019-02-11T09:05:54.414Z,988.9
2019-02-11T09:06:55.135Z,988.9
2019-02-11T09:07:55.810Z,988.9
2019-02-11T09:08:56.483Z,988.9
2019-02-11T09:09:57.157Z,988.9
2019-02-11T09:10:57.833Z,988.9
2019-02-11T09:11:58.506Z,989.0
2019-02-11T09:12:59.180Z,989.0
2019-02-11T09:13:59.854Z,989.1
2019-02-11T09:15:00.533Z,989.0
2019-02-11T09:16:01.206Z,989.0
2019-02-11T09:17:09.823Z,989.1
2019-02-11T09:18:03.546Z,989.0
2019-02-11T09:19:04.221Z,988.9
2019-02-11T09:20:04.896Z,989.0
2019-02-11T09:21:05.573Z,989.0
2019-02-11T09:22:07.777Z,989.0
2019-02-11T09:23:07.914Z,988.9
2019-02-11T09:24:08.587Z,989.0
2019-02-11T09:25:09.261Z,989.0
2019-02-11T09:26:09.937Z,988.9
2019-02-11T09:27:10.611Z,988.9
2019-02-11T09:28:11.285Z,988.9
2019-02-11T09:29:11.958Z,989.1
2019-02-11T09:30:12.635Z,989.0
2019-02-11T09:31:13.307Z,988.9
2019-02-11T09:32:13.981Z,989.1
2019-02-11T09:33:14.656Z,989.0
2019-02-11T09:34:15.330Z,989.0
2019-02-11T09:35:16.003Z,989.1
2019-02-11T09:36:16.679Z,989.2
2019-02-11T09:37:17.354Z,989.1
2019-02-11T09:38:18.028Z,989.2
2019-02-11T09:39:18.722Z,989.1
2019-02-11T09:40:19.428Z,989.1
2019-02-11T09:41:20.104Z,989.3
2019-02-11T09:42:20.779Z,989.2
2019-02-11T09:43:21.807Z,989.3
2019-02-11T09:44:29.495Z,989.2
2019-02-11T09:45:23.145Z,989.3
2019-02-11T09:46:23.823Z,989.4
2019-02-11T09:47:24.494Z,989.3
2019-02-11T09:48:25.169Z,989.3
2019-02-11T09:49:25.845Z,989.3
2019-02-11T09:50:26.522Z,989.5
2019-02-11T09:51:27.197Z,989.4
2019-02-11T09:52:27.871Z,989.4
2019-02-11T09:53:28.549Z,989.5
2019-02-11T09:54:29.223Z,989.5
2019-02-11T09:55:29.898Z,989.5
2019-02-11T09:56:30.578Z,989.4
2019-02-11T09:57:31.263Z,989.6
2019-02-11T09:58:31.976Z,989.5
2019-02-11T09:59:32.651Z,989.5
2019-02-11T10:00:33.340Z,989.6
2019-02-11T10:01:34.051Z,989.6
2019-02-11T10:02:34.727Z,989.5
2019-02-11T10:03:35.437Z,989.5
2019-02-11T10:04:36.127Z,989.5
2019-02-11T10:05:36.841Z,989.6
2019-02-11T10:06:37.531Z,989.7
2019-02-11T10:07:38.207Z,989.7
2019-02-11T10:08:38.884Z,989.7
2019-02-11T10:09:39.560Z,989.7
2019-02-11T10:10:40.236Z,989.7
2019-02-11T10:11:40.922Z,989.8
2019-02-11T10:12:41.639Z,989.7
2019-02-11T10:13:42.317Z,989.7
2019-02-11T10:14:42.993Z,989.8
2019-02-11T10:15:43.718Z,989.9
2019-02-11T10:16:44.393Z,990.0
2019-02-11T10:17:45.069Z,989.8
2019-02-11T10:18:45.747Z,989.9
2019-02-11T10:19:46.425Z,990.0
2019-02-11T10:20:47.102Z,990.1
2019-02-11T10:21:47.778Z,990.0
2019-02-11T10:22:48.501Z,990.3
2019-02-11T10:23:49.176Z,990.2
2019-02-11T10:24:49.853Z,990.3
2019-02-11T10:25:50.532Z,990.2
2019-02-11T10:26:51.205Z,990.1
2019-02-11T10:27:51.883Z,990.2
2019-02-11T10:28:52.560Z,990.1
2019-02-11T10:29:53.237Z,990.3
2019-02-11T10:30:53.912Z,990.3
2019-02-11T10:31:54.588Z,990.3
2019-02-11T10:32:55.265Z,990.3
2019-02-11T10:33:55.942Z,990.4
2019-02-11T10:34:56.618Z,990.4
2019-02-11T10:35:57.343Z,990.4
2019-02-11T10:36:58.021Z,990.4
2019-02-11T10:37:58.696Z,990.4
2019-02-11T10:38:59.373Z,990.5
2019-02-11T10:40:00.048Z,990.5
2019-02-11T10:41:00.724Z,990.4
2019-02-11T10:42:01.449Z,990.4
2019-02-11T10:43:02.125Z,990.5
2019-02-11T10:44:02.801Z,990.5
2019-02-11T10:45:03.479Z,990.5
2019-02-11T10:46:04.153Z,990.5
2019-02-11T10:47:04.862Z,990.5
2019-02-11T10:48:05.507Z,990.8
2019-02-11T10:49:06.232Z,990.6
2019-02-11T10:50:06.909Z,990.7
2019-02-11T10:51:07.585Z,990.6
2019-02-11T10:52:08.314Z,990.7
2019-02-11T10:53:08.986Z,990.9
2019-02-11T10:54:09.711Z,990.8
2019-02-11T10:55:10.389Z,990.8
2019-02-11T10:56:11.065Z,990.9
2019-02-11T10:57:11.742Z,990.8
2019-02-11T10:58:12.418Z,990.8
2019-02-11T10:59:13.093Z,990.8
2019-02-11T11:00:13.773Z,990.8
2019-02-11T11:01:14.474Z,990.8
2019-02-11T11:02:15.175Z,990.8
2019-02-11T11:03:15.854Z,990.9
2019-02-11T11:04:16.576Z,990.8
2019-02-11T11:05:17.250Z,990.8
2019-02-11T11:06:17.927Z,990.8
2019-02-11T11:07:18.604Z,990.8
2019-02-11T11:08:19.281Z,990.9
2019-02-11T11:09:19.962Z,990.8
2019-02-11T11:10:20.633Z,990.9
2019-02-11T11:11:21.310Z,991.0
2019-02-11T11:12:21.990Z,990.8
2019-02-11T11:13:22.658Z,990.8
2019-02-11T11:14:23.336Z,990.9
2019-02-11T11:15:24.013Z,991.0
2019-02-11T11:16:29.746Z,991.2
2019-02-11T11:17:26.360Z,991.1
2019-02-11T11:18:27.034Z,991.1
2019-02-11T11:19:27.708Z,991.1
2019-02-11T11:20:28.386Z,991.1
2019-02-11T11:21:29.114Z,991.2
2019-02-11T11:22:29.788Z,991.1
2019-02-11T11:23:30.467Z,991.2
2019-02-11T11:24:31.140Z,991.1
2019-02-11T11:25:31.817Z,991.1
2019-02-11T11:26:32.494Z,991.2
2019-02-11T11:27:33.171Z,991.1
2019-02-11T11:28:33.846Z,991.4
2019-02-11T11:29:34.522Z,991.2
2019-02-11T11:30:35.198Z,991.2
2019-02-11T11:31:35.876Z,991.2
2019-02-11T11:32:36.550Z,991.2
2019-02-11T11:33:37.227Z,991.4
2019-02-11T11:34:37.904Z,991.2
2019-02-11T11:35:38.583Z,991.2
2019-02-11T11:36:39.269Z,991.2
2019-02-11T11:37:39.980Z,991.3
2019-02-11T11:38:40.658Z,991.4
2019-02-11T11:39:41.333Z,991.4
2019-02-11T11:40:42.060Z,991.4
2019-02-11T11:41:42.739Z,991.5
2019-02-11T11:42:43.411Z,991.5
2019-02-11T11:43:44.088Z,991.5
2019-02-11T11:44:44.764Z,991.5
2019-02-11T11:45:45.441Z,991.5
2019-02-11T11:46:47.281Z,991.5
2019-02-11T11:47:47.787Z,991.5
2019-02-11T11:48:48.464Z,991.5
2019-02-11T11:49:49.138Z,991.6
2019-02-11T11:50:49.815Z,991.6
2019-02-11T11:51:50.492Z,991.6
2019-02-11T11:52:51.172Z,991.5
2019-02-11T11:53:51.844Z,991.7
2019-02-11T11:54:52.519Z,991.6
2019-02-11T11:55:53.297Z,991.5
2019-02-11T11:56:53.920Z,991.6
2019-02-11T11:57:54.603Z,991.6
2019-02-11T11:58:55.328Z,991.6
2019-02-11T11:59:56.019Z,991.6
2019-02-11T12:00:56.732Z,991.7
2019-02-11T12:01:57.402Z,991.7
2019-02-11T12:03:02.628Z,991.7
2019-02-11T12:03:59.750Z,991.8
2019-02-11T12:05:00.495Z,991.8
2019-02-11T12:06:01.141Z,991.8
2019-02-11T12:07:01.827Z,992.0
2019-02-11T12:08:02.496Z,991.9
2019-02-11T12:09:03.162Z,991.9
2019-02-11T12:10:03.843Z,992.0
2019-02-11T12:11:04.519Z,992.0
2019-02-11T12:12:05.202Z,992.0
2019-02-11T12:13:21.726Z,992.1
2019-02-11T12:14:07.593Z,992.2
2019-02-11T12:15:08.299Z,992.2
2019-02-11T12:16:09.000Z,992.2
2019-02-11T12:17:09.687Z,992.2
2019-02-11T12:18:10.355Z,992.2
2019-02-11T12:19:11.035Z,992.1
2019-02-11T12:20:11.727Z,992.2
2019-02-11T12:21:12.438Z,992.2
2019-02-11T12:22:13.500Z,992.2
2019-02-11T12:23:14.180Z,992.3
2019-02-11T12:24:14.902Z,992.3
2019-02-11T12:25:15.581Z,992.3
2019-02-11T12:26:16.274Z,992.3
2019-02-11T12:27:16.933Z,992.2
2019-02-11T12:28:17.616Z,992.3
2019-02-11T12:29:18.293Z,992.3
2019-02-11T12:30:18.970Z,992.4
2019-02-11T12:31:19.647Z,992.4
2019-02-11T12:32:20.327Z,992.4
2019-02-11T12:33:21.083Z,992.4
2019-02-11T12:34:21.768Z,992.4
2019-02-11T12:35:22.469Z,992.5
2019-02-11T12:36:23.124Z,992.4
2019-02-11T12:37:23.834Z,992.5
2019-02-11T12:38:24.522Z,992.6
2019-02-11T12:39:25.225Z,992.6
2019-02-11T12:40:25.971Z,992.6
2019-02-11T12:41:26.624Z,992.6
2019-02-11T12:42:27.297Z,992.6
2019-02-11T12:43:27.974Z,992.7
2019-02-11T12:44:28.647Z,992.7
2019-02-11T12:45:29.328Z,992.7
2019-02-11T12:46:30.004Z,992.6
2019-02-11T12:47:30.675Z,992.7
2019-02-11T12:48:31.358Z,992.6
2019-02-11T12:49:32.041Z,992.7
2019-02-11T12:50:32.718Z,992.7
2019-02-11T12:51:33.432Z,992.7
2019-02-11T12:52:34.109Z,992.8
2019-02-11T12:53:34.785Z,992.8
2019-02-11T12:54:35.458Z,992.9
2019-02-11T12:55:36.136Z,992.8
2019-02-11T12:56:36.809Z,992.8
2019-02-11T12:57:37.519Z,992.8
2019-02-11T12:58:38.202Z,992.9
2019-02-11T12:59:38.874Z,992.8
2019-02-11T13:00:39.556Z,992.8
2019-02-11T13:01:40.228Z,993.0